createdAt,value
2019-06-15T00:00:56.866Z,21.74
2019-06-15T00:03:25.298Z,21.79
2019-06-15T00:05:53.731Z,21.79
2019-06-15T00:08:22.202Z,21.83
2019-06-15T00:10:50.664Z,21.83
2019-06-15T00:13:19.067Z,21.87
2019-06-15T00:15:47.479Z,21.91
2019-06-15T00:18:15.921Z,21.95
2019-06-15T00:20:44.321Z,21.97
2019-06-15T00:23:12.763Z,22.08
2019-06-15T00:25:41.182Z,22.19
2019-06-15T00:28:09.586Z,22.22
2019-06-15T00:30:38.013Z,22.22
2019-06-15T00:33:06.580Z,22.21
2019-06-15T00:35:35.014Z,22.18
2019-06-15T00:38:03.427Z,22.20
2019-06-15T00:40:31.850Z,22.20
2019-06-15T00:43:00.301Z,22.22
2019-06-15T00:45:28.743Z,22.22
2019-06-15T00:47:57.184Z,22.17
2019-06-15T00:50:25.605Z,22.18
2019-06-15T00:52:54.043Z,22.16
2019-06-15T00:55:22.467Z,22.15
2019-06-15T00:57:50.908Z,22.18
2019-06-15T01:00:19.675Z,22.18
2019-06-15T01:02:48.138Z,22.23
2019-06-15T01:05:17.208Z,22.31
2019-06-15T01:07:45.640Z,22.32
2019-06-15T01:10:15.507Z,22.38
2019-06-15T01:12:43.932Z,22.35
2019-06-15T01:15:13.189Z,22.36
2019-06-15T01:17:41.704Z,22.29
2019-06-15T01:20:11.184Z,22.28
2019-06-15T01:22:39.586Z,22.23
2019-06-15T01:25:10.063Z,22.21
2019-06-15T01:27:39.910Z,22.19
2019-06-15T01:30:13.257Z,22.16
2019-06-15T01:32:41.661Z,22.10
2019-06-15T01:35:10.345Z,22.09
2019-06-15T01:37:38.938Z,22.01
2019-06-15T01:40:08.611Z,22.02
2019-06-15T01:42:37.097Z,21.97
2019-06-15T01:45:09.120Z,21.95
2019-06-15T01:47:37.558Z,21.89
2019-06-15T01:50:06.405Z,21.81
2019-06-15T01:52:34.913Z,21.77
2019-06-15T01:55:04.491Z,21.75
2019-06-15T01:57:32.909Z,21.73
2019-06-15T02:00:01.394Z,21.69
2019-06-15T02:02:29.795Z,21.61
2019-06-15T02:04:58.222Z,21.57
2019-06-15T02:07:26.651Z,21.53
2019-06-15T02:09:55.084Z,21.52
2019-06-15T02:12:23.532Z,21.52
2019-06-15T02:14:51.958Z,21.56
2019-06-15T02:17:20.469Z,21.55
2019-06-15T02:19:48.973Z,21.54
2019-06-15T02:22:17.387Z,21.55
2019-06-15T02:24:45.810Z,21.52
2019-06-15T02:27:14.231Z,21.51
2019-06-15T02:29:42.660Z,21.53
2019-06-15T02:32:11.087Z,21.59
2019-06-15T02:34:39.524Z,21.60
2019-06-15T02:37:07.963Z,21.58
2019-06-15T02:39:36.403Z,21.52
2019-06-15T02:42:05.102Z,21.41
2019-06-15T02:44:33.534Z,21.38
2019-06-15T02:47:01.985Z,21.35
2019-06-15T02:49:30.379Z,21.32
2019-06-15T02:51:58.969Z,21.29
2019-06-15T02:54:27.382Z,21.35
2019-06-15T02:56:55.793Z,21.41
2019-06-15T02:59:24.239Z,21.44
2019-06-15T03:01:52.750Z,21.46
2019-06-15T03:04:21.525Z,21.50
2019-06-15T03:06:50.129Z,21.54
2019-06-15T03:09:18.546Z,21.55
2019-06-15T03:11:47.035Z,21.46
2019-06-15T03:14:16.059Z,21.47
2019-06-15T03:16:44.471Z,21.49
2019-06-15T03:19:12.892Z,21.47
2019-06-15T03:21:41.317Z,21.38
2019-06-15T03:24:09.726Z,21.34
2019-06-15T03:26:38.186Z,21.36
2019-06-15T03:29:06.669Z,21.37
2019-06-15T03:31:35.100Z,21.36
2019-06-15T03:34:03.567Z,21.37
2019-06-15T03:36:31.990Z,21.35
2019-06-15T03:39:00.427Z,21.48
2019-06-15T03:41:28.899Z,21.45
2019-06-15T03:43:57.328Z,21.42
2019-06-15T03:46:25.751Z,21.40
2019-06-15T03:48:55.050Z,21.38
2019-06-15T03:51:23.481Z,21.41
2019-06-15T03:53:51.913Z,21.45
2019-06-15T03:56:21.905Z,21.45
2019-06-15T03:58:50.503Z,21.51
2019-06-15T04:01:31.027Z,21.51
2019-06-15T04:03:59.447Z,21.57
2019-06-15T04:06:27.882Z,21.59
2019-06-15T04:08:56.281Z,21.62
2019-06-15T04:11:24.786Z,21.62
2019-06-15T04:13:53.221Z,21.60
2019-06-15T04:16:21.647Z,21.63
2019-06-15T04:18:50.090Z,21.62
2019-06-15T04:21:18.529Z,21.62
2019-06-15T04:23:46.954Z,21.59
2019-06-15T04:26:15.397Z,21.59
2019-06-15T04:28:43.827Z,21.59
2019-06-15T04:31:12.274Z,21.61
2019-06-15T04:33:40.699Z,21.59
2019-06-15T04:36:09.180Z,21.63
2019-06-15T04:38:37.614Z,21.67
2019-06-15T04:41:06.173Z,21.76
2019-06-15T04:43:36.617Z,21.78
2019-06-15T04:46:05.295Z,21.76
2019-06-15T04:48:33.807Z,21.77
2019-06-15T04:51:02.214Z,21.84
2019-06-15T04:53:30.674Z,21.81
2019-06-15T04:55:59.084Z,21.85
2019-06-15T04:58:27.521Z,21.85
2019-06-15T05:00:55.936Z,21.89
2019-06-15T05:03:24.351Z,21.78
2019-06-15T05:05:53.328Z,21.85
2019-06-15T05:08:21.755Z,21.83
2019-06-15T05:10:50.254Z,21.81
2019-06-15T05:13:18.737Z,21.82
2019-06-15T05:15:48.533Z,21.84
2019-06-15T05:18:19.462Z,21.82
2019-06-15T05:20:48.066Z,21.78
2019-06-15T05:23:16.493Z,21.75
2019-06-15T05:25:44.986Z,21.74
2019-06-15T05:28:13.416Z,21.72
2019-06-15T05:30:41.848Z,21.62
2019-06-15T05:33:10.782Z,21.58
2019-06-15T05:35:39.191Z,21.56
2019-06-15T05:38:07.687Z,21.55
2019-06-15T05:40:36.104Z,21.53
2019-06-15T05:43:04.609Z,21.54
2019-06-15T05:45:33.055Z,21.55
2019-06-15T05:48:03.140Z,21.54
2019-06-15T05:50:31.553Z,21.48
2019-06-15T05:53:00.023Z,21.46
2019-06-15T05:55:28.491Z,21.46
2019-06-15T05:57:56.949Z,21.45
2019-06-15T06:00:25.509Z,21.51
2019-06-15T06:02:53.951Z,21.41
2019-06-15T06:05:22.515Z,21.43
2019-06-15T06:07:51.000Z,21.36
2019-06-15T06:10:19.517Z,21.38
2019-06-15T06:12:47.955Z,21.33
2019-06-15T06:15:17.806Z,21.36
2019-06-15T06:17:46.312Z,21.35
2019-06-15T06:20:18.137Z,21.34
2019-06-15T06:22:46.576Z,21.36
2019-06-15T06:25:15.157Z,21.42
2019-06-15T06:27:43.594Z,21.41
2019-06-15T06:30:12.677Z,21.40
2019-06-15T06:32:41.136Z,21.41
2019-06-15T06:35:10.133Z,21.38
2019-06-15T06:37:38.566Z,21.41
2019-06-15T06:40:10.323Z,21.35
2019-06-15T06:42:38.753Z,21.35
2019-06-15T06:45:09.431Z,21.43
2019-06-15T06:47:40.231Z,21.36
2019-06-15T06:50:09.972Z,21.41
2019-06-15T06:52:38.649Z,21.37
2019-06-15T06:55:08.154Z,21.42
2019-06-15T06:57:53.336Z,21.40
2019-06-15T07:00:15.609Z,21.47
2019-06-15T07:02:44.132Z,21.48
2019-06-15T07:05:13.408Z,21.53
2019-06-15T07:07:41.875Z,21.54
2019-06-15T07:10:11.360Z,21.52
2019-06-15T07:12:39.868Z,21.54
2019-06-15T07:15:08.935Z,21.59
2019-06-15T07:17:37.374Z,21.64
2019-06-15T07:20:11.992Z,21.75
2019-06-15T07:22:40.420Z,21.82
2019-06-15T07:25:10.001Z,21.86
2019-06-15T07:27:38.424Z,21.95
2019-06-15T07:30:10.751Z,22.01
2019-06-15T07:32:39.647Z,21.98
2019-06-15T07:35:08.676Z,22.01
2019-06-15T07:37:37.122Z,22.09
2019-06-15T07:40:08.252Z,22.28
2019-06-15T07:42:39.260Z,22.65
2019-06-15T07:45:08.962Z,23.39
2019-06-15T07:47:37.459Z,23.92
2019-06-15T07:50:07.522Z,24.37
2019-06-15T07:52:35.938Z,24.36
2019-06-15T07:55:07.395Z,24.56
2019-06-15T07:57:35.902Z,24.90
2019-06-15T08:00:06.874Z,25.36
2019-06-15T08:02:35.314Z,25.78
2019-06-15T08:05:08.323Z,26.03
2019-06-15T08:07:36.748Z,26.07
2019-06-15T08:10:07.200Z,25.64
2019-06-15T08:12:35.633Z,25.55
2019-06-15T08:15:05.799Z,25.22
2019-06-15T08:17:34.236Z,25.48
2019-06-15T08:20:02.663Z,25.59
2019-06-15T08:22:31.095Z,25.51
2019-06-15T08:24:59.568Z,25.94
2019-06-15T08:27:27.992Z,26.10
2019-06-15T08:29:56.423Z,26.15
2019-06-15T08:32:24.954Z,26.51
2019-06-15T08:34:53.414Z,26.48
2019-06-15T08:37:21.853Z,26.66
2019-06-15T08:39:50.255Z,26.70
2019-06-15T08:42:18.694Z,26.83
2019-06-15T08:44:47.118Z,26.84
2019-06-15T08:47:15.539Z,26.87
2019-06-15T08:49:43.975Z,26.90
2019-06-15T08:52:12.492Z,26.94
2019-06-15T08:54:40.913Z,27.14
2019-06-15T08:57:09.417Z,27.19
2019-06-15T08:59:37.847Z,27.12
2019-06-15T09:02:06.265Z,27.28
2019-06-15T09:04:34.744Z,27.54
2019-06-15T09:07:03.181Z,27.45
2019-06-15T09:09:31.674Z,27.68
2019-06-15T09:12:00.112Z,27.58
2019-06-15T09:14:28.531Z,27.71
2019-06-15T09:16:57.228Z,27.77
2019-06-15T09:19:25.656Z,27.89
2019-06-15T09:21:54.076Z,27.89
2019-06-15T09:24:22.512Z,27.81
2019-06-15T09:26:51.205Z,27.86
2019-06-15T09:29:19.658Z,27.92
2019-06-15T09:31:48.097Z,27.98
2019-06-15T09:34:19.276Z,27.78
2019-06-15T09:36:46.691Z,27.75
2019-06-15T09:39:15.105Z,27.88
2019-06-15T09:41:43.534Z,27.92
2019-06-15T09:44:11.970Z,27.87
2019-06-15T09:46:40.452Z,28.01
2019-06-15T09:49:09.021Z,28.04
2019-06-15T09:51:37.521Z,28.13
2019-06-15T09:54:06.030Z,28.11
2019-06-15T09:56:34.452Z,28.06
2019-06-15T09:59:02.861Z,27.84
2019-06-15T10:01:31.326Z,27.94
2019-06-15T10:03:59.767Z,28.05
2019-06-15T10:06:28.167Z,28.34
2019-06-15T10:08:56.603Z,28.33
2019-06-15T10:11:25.030Z,28.38
2019-06-15T10:13:53.524Z,28.44
2019-06-15T10:16:22.017Z,28.60
2019-06-15T10:18:50.392Z,28.40
2019-06-15T10:21:18.866Z,28.21
2019-06-15T10:23:47.297Z,28.00
2019-06-15T10:26:15.719Z,27.54
2019-06-15T10:28:44.149Z,27.44
2019-06-15T10:31:12.643Z,27.53
2019-06-15T10:33:41.071Z,27.54
2019-06-15T10:36:09.794Z,27.31
2019-06-15T10:38:38.399Z,26.86
2019-06-15T10:41:06.836Z,26.72
2019-06-15T10:43:35.332Z,26.70
2019-06-15T10:46:03.761Z,26.79
2019-06-15T10:48:32.194Z,26.96
2019-06-15T10:51:00.621Z,27.23
2019-06-15T10:53:29.049Z,27.47
2019-06-15T10:55:57.494Z,27.31
2019-06-15T10:58:25.893Z,27.09
2019-06-15T11:00:54.355Z,26.55
2019-06-15T11:03:22.770Z,26.05
2019-06-15T11:05:54.823Z,25.75
2019-06-15T11:08:22.701Z,25.81
2019-06-15T11:10:54.170Z,25.99
2019-06-15T11:13:22.664Z,26.03
2019-06-15T11:15:51.156Z,25.96
2019-06-15T11:18:19.652Z,26.07
2019-06-15T11:20:48.073Z,25.90
2019-06-15T11:23:16.500Z,25.89
2019-06-15T11:25:44.926Z,26.10
2019-06-15T11:28:13.360Z,26.04
2019-06-15T11:30:41.811Z,26.00
2019-06-15T11:33:10.223Z,26.04
2019-06-15T11:35:38.733Z,26.09
2019-06-15T11:38:07.141Z,26.33
2019-06-15T11:40:35.572Z,26.41
2019-06-15T11:43:03.992Z,26.22
2019-06-15T11:45:32.469Z,26.16
2019-06-15T11:48:00.886Z,26.18
2019-06-15T11:50:29.345Z,26.23
2019-06-15T11:52:57.766Z,26.24
2019-06-15T11:55:38.548Z,26.50
2019-06-15T11:57:56.370Z,26.52
2019-06-15T12:00:31.625Z,26.02
2019-06-15T12:02:58.068Z,25.68
2019-06-15T12:05:26.540Z,25.73
2019-06-15T12:07:54.914Z,25.64
2019-06-15T12:10:23.388Z,25.50
2019-06-15T12:12:51.771Z,25.52
2019-06-15T12:15:20.189Z,25.83
2019-06-15T12:17:48.625Z,25.88
2019-06-15T12:20:17.164Z,25.40
2019-06-15T12:22:46.814Z,25.44
2019-06-15T12:25:15.555Z,25.30
2019-06-15T12:27:43.980Z,25.35
2019-06-15T12:30:14.113Z,25.04
2019-06-15T12:32:42.608Z,24.59
2019-06-15T12:35:11.020Z,25.02
2019-06-15T12:37:39.448Z,25.13
2019-06-15T12:40:08.829Z,25.03
2019-06-15T12:42:37.239Z,25.06
2019-06-15T12:45:06.228Z,24.94
2019-06-15T12:47:34.920Z,24.76
2019-06-15T12:50:04.932Z,24.99
2019-06-15T12:52:34.255Z,25.10
2019-06-15T12:55:02.681Z,25.31
2019-06-15T12:57:31.105Z,25.14
2019-06-15T12:59:59.527Z,25.05
2019-06-15T13:02:27.948Z,25.09
2019-06-15T13:04:56.418Z,24.98
2019-06-15T13:07:24.810Z,25.01
2019-06-15T13:09:53.242Z,25.05
2019-06-15T13:12:21.671Z,24.74
2019-06-15T13:14:50.093Z,24.73
2019-06-15T13:17:18.513Z,24.66
2019-06-15T13:19:46.935Z,24.44
2019-06-15T13:22:15.353Z,24.38
2019-06-15T13:24:43.769Z,24.68
2019-06-15T13:27:12.874Z,24.60
2019-06-15T13:29:45.115Z,24.73
2019-06-15T13:32:13.559Z,24.80
2019-06-15T13:34:41.975Z,24.68
2019-06-15T13:37:10.437Z,24.64
2019-06-15T13:39:39.081Z,24.75
2019-06-15T13:42:07.491Z,24.76
2019-06-15T13:44:35.928Z,24.90
2019-06-15T13:47:04.351Z,25.13
2019-06-15T13:49:33.017Z,25.22
2019-06-15T13:52:02.557Z,24.73
2019-06-15T13:54:30.964Z,24.92
2019-06-15T13:56:59.412Z,24.81
2019-06-15T13:59:27.888Z,24.94
2019-06-15T14:01:56.334Z,25.03
2019-06-15T14:04:24.758Z,25.04
2019-06-15T14:06:53.207Z,25.02
2019-06-15T14:09:21.677Z,24.87
2019-06-15T14:11:50.098Z,24.90
2019-06-15T14:14:18.593Z,24.99
2019-06-15T14:16:46.965Z,24.97
2019-06-15T14:19:15.449Z,24.99
2019-06-15T14:21:43.870Z,25.04
2019-06-15T14:24:12.587Z,24.93
2019-06-15T14:26:41.083Z,24.88
2019-06-15T14:29:09.523Z,24.49
2019-06-15T14:31:49.676Z,24.50
2019-06-15T14:34:08.289Z,24.58
2019-06-15T14:36:36.722Z,24.49
2019-06-15T14:39:09.573Z,24.32
2019-06-15T14:41:37.979Z,24.35
2019-06-15T14:44:06.413Z,24.41
2019-06-15T14:46:34.823Z,24.37
2019-06-15T14:49:03.257Z,24.39
2019-06-15T14:51:32.112Z,24.44
2019-06-15T14:54:00.528Z,24.43
2019-06-15T14:56:28.966Z,24.17
2019-06-15T14:58:57.393Z,24.55
2019-06-15T15:01:26.225Z,24.52
2019-06-15T15:03:57.106Z,24.34
2019-06-15T15:06:26.084Z,24.64
2019-06-15T15:08:56.251Z,24.74
2019-06-15T15:11:26.414Z,24.43
2019-06-15T15:13:56.209Z,24.35
2019-06-15T15:16:24.939Z,24.22
2019-06-15T15:18:53.359Z,24.19
2019-06-15T15:21:21.777Z,24.29
2019-06-15T15:23:50.215Z,24.07
2019-06-15T15:26:18.617Z,24.18
2019-06-15T15:28:47.461Z,24.03
2019-06-15T15:31:17.244Z,24.00
2019-06-15T15:33:47.726Z,23.98
2019-06-15T15:36:16.885Z,23.96
2019-06-15T15:38:46.837Z,23.91
2019-06-15T15:41:17.169Z,23.75
2019-06-15T15:43:46.396Z,23.79
2019-06-15T15:46:16.435Z,23.86
2019-06-15T15:48:47.070Z,23.64
2019-06-15T15:51:17.263Z,23.60
2019-06-15T15:53:46.708Z,23.58
2019-06-15T15:56:17.088Z,23.30
2019-06-15T15:58:47.231Z,23.33
2019-06-15T16:01:17.086Z,23.34
2019-06-15T16:03:47.435Z,23.42
2019-06-15T16:06:16.087Z,23.50
2019-06-15T16:08:47.038Z,23.54
2019-06-15T16:11:16.320Z,23.67
2019-06-15T16:13:46.089Z,23.49
2019-06-15T16:16:16.383Z,23.52
2019-06-15T16:18:47.038Z,23.59
2019-06-15T16:21:16.869Z,23.53
2019-06-15T16:23:46.873Z,23.48
2019-06-15T16:26:16.909Z,23.44
2019-06-15T16:28:46.216Z,23.37
2019-06-15T16:31:17.744Z,23.01
2019-06-15T16:33:46.500Z,22.92
2019-06-15T16:36:15.446Z,22.83
2019-06-15T16:38:46.777Z,22.74
2019-06-15T16:41:14.444Z,22.82
2019-06-15T16:43:42.930Z,22.76
2019-06-15T16:46:11.355Z,22.68
2019-06-15T16:48:39.797Z,22.74
2019-06-15T16:51:08.218Z,22.85
2019-06-15T16:53:37.250Z,22.96
2019-06-15T16:56:06.294Z,23.10
2019-06-15T16:58:36.319Z,23.16
2019-06-15T17:01:06.515Z,23.09
2019-06-15T17:03:36.669Z,23.11
2019-06-15T17:06:06.954Z,23.12
2019-06-15T17:08:36.828Z,23.16
2019-06-15T17:11:06.793Z,23.10
2019-06-15T17:13:37.013Z,23.02
2019-06-15T17:16:06.248Z,23.09
2019-06-15T17:18:36.483Z,23.09
2019-06-15T17:21:07.030Z,23.11
2019-06-15T17:23:35.412Z,23.05
2019-06-15T17:26:06.282Z,22.90
2019-06-15T17:28:34.021Z,22.92
2019-06-15T17:31:02.554Z,22.79
2019-06-15T17:33:37.605Z,22.77
2019-06-15T17:36:03.287Z,22.81
2019-06-15T17:38:31.264Z,22.78
2019-06-15T17:40:59.681Z,22.69
2019-06-15T17:43:28.108Z,22.67
2019-06-15T17:45:56.755Z,22.62
2019-06-15T17:48:25.179Z,22.51
2019-06-15T17:50:53.599Z,22.33
2019-06-15T17:53:22.032Z,22.18
2019-06-15T17:55:50.466Z,22.12
2019-06-15T17:58:18.880Z,22.04
2019-06-15T18:00:48.450Z,21.98
2019-06-15T18:03:17.471Z,21.90
2019-06-15T18:05:48.217Z,21.88
2019-06-15T18:08:16.848Z,21.85
2019-06-15T18:10:47.545Z,21.70
2019-06-15T18:13:16.911Z,21.62
2019-06-15T18:15:47.559Z,21.54
2019-06-15T18:18:16.878Z,21.58
2019-06-15T18:20:45.729Z,21.53
2019-06-15T18:23:16.995Z,21.43
2019-06-15T18:25:46.580Z,21.42
2019-06-15T18:28:17.135Z,21.37
2019-06-15T18:30:46.624Z,21.30
2019-06-15T18:33:16.339Z,21.24
2019-06-15T18:35:47.069Z,21.21
2019-06-15T18:38:15.045Z,21.17
2019-06-15T18:40:43.455Z,21.17
2019-06-15T18:43:11.885Z,21.17
2019-06-15T18:45:40.294Z,21.19
2019-06-15T18:48:08.735Z,21.02
2019-06-15T18:50:39.961Z,20.98
2019-06-15T18:53:08.804Z,20.99
2019-06-15T18:55:37.673Z,20.96
2019-06-15T18:58:06.543Z,20.99
2019-06-15T19:00:37.032Z,20.96
2019-06-15T19:03:06.951Z,20.91
2019-06-15T19:05:37.304Z,20.89
2019-06-15T19:08:07.568Z,20.80
2019-06-15T19:10:37.172Z,20.74
2019-06-15T19:13:07.678Z,20.74
2019-06-15T19:15:37.430Z,20.70
2019-06-15T19:18:07.509Z,20.60
2019-06-15T19:20:37.246Z,20.64
2019-06-15T19:23:06.797Z,20.65
2019-06-15T19:25:36.540Z,20.58
2019-06-15T19:28:05.403Z,20.52
2019-06-15T19:30:33.977Z,20.53
2019-06-15T19:33:02.414Z,20.52
2019-06-15T19:35:31.260Z,20.41
2019-06-15T19:37:59.686Z,20.36
2019-06-15T19:40:28.111Z,20.30
2019-06-15T19:42:57.102Z,20.28
2019-06-15T19:45:26.696Z,20.16
2019-06-15T19:47:55.238Z,20.08
2019-06-15T19:50:23.681Z,20.15
2019-06-15T19:52:52.090Z,20.10
2019-06-15T19:55:20.524Z,19.97
2019-06-15T19:57:48.960Z,19.88
2019-06-15T20:00:18.636Z,19.89
2019-06-15T20:02:48.189Z,19.82
2019-06-15T20:05:17.709Z,19.71
2019-06-15T20:07:46.693Z,19.67
2019-06-15T20:10:15.759Z,19.68
2019-06-15T20:12:46.452Z,19.64
2019-06-15T20:15:16.833Z,19.59
2019-06-15T20:17:46.117Z,19.59
2019-06-15T20:20:15.475Z,19.55
2019-06-15T20:22:46.651Z,19.53
2019-06-15T20:25:16.053Z,19.43
2019-06-15T20:27:46.700Z,19.34
2019-06-15T20:30:16.985Z,19.25
2019-06-15T20:32:46.234Z,19.32
2019-06-15T20:35:20.569Z,19.29
2019-06-15T20:37:46.522Z,19.08
2019-06-15T20:40:16.543Z,19.01
2019-06-15T20:42:46.162Z,19.01
2019-06-15T20:45:16.771Z,19.05
2019-06-15T20:47:47.777Z,19.06
2019-06-15T20:50:27.273Z,19.00
2019-06-15T20:52:47.166Z,18.99
2019-06-15T20:55:16.316Z,18.96
2019-06-15T20:57:46.083Z,18.88
2019-06-15T21:00:16.748Z,18.83
2019-06-15T21:02:45.386Z,18.80
2019-06-15T21:05:33.019Z,18.75
2019-06-15T21:07:47.161Z,18.74
2019-06-15T21:10:16.151Z,18.68
2019-06-15T21:12:46.905Z,18.63
2019-06-15T21:15:16.080Z,18.50
2019-06-15T21:17:46.628Z,18.47
2019-06-15T21:20:16.335Z,18.47
2019-06-15T21:22:46.516Z,18.39
2019-06-15T21:25:17.509Z,18.45
2019-06-15T21:27:47.479Z,18.41
2019-06-15T21:30:16.573Z,18.39
2019-06-15T21:32:46.593Z,18.46
2019-06-15T21:35:15.298Z,18.42
2019-06-15T21:37:46.292Z,18.41
2019-06-15T21:40:18.284Z,18.42
2019-06-15T21:42:46.886Z,18.40
2019-06-15T21:45:15.954Z,18.36
2019-06-15T21:47:46.393Z,18.43
2019-06-15T21:50:16.079Z,18.40
2019-06-15T21:52:45.957Z,18.37
2019-06-15T21:55:16.014Z,18.34
2019-06-15T21:57:44.761Z,18.28
2019-06-15T22:00:22.501Z,18.28
2019-06-15T22:02:51.101Z,18.33
2019-06-15T22:05:19.573Z,18.30
2019-06-15T22:07:47.970Z,18.30
2019-06-15T22:10:16.551Z,18.26
2019-06-15T22:12:50.610Z,18.23
2019-06-15T22:15:20.036Z,18.19
2019-06-15T22:17:48.459Z,18.19
2019-06-15T22:20:17.036Z,18.16
2019-06-15T22:22:47.032Z,18.09
2019-06-15T22:25:16.002Z,18.07
2019-06-15T22:27:46.703Z,18.07
2019-06-15T22:30:16.981Z,18.03
2019-06-15T22:32:47.277Z,18.01
2019-06-15T22:35:16.456Z,18.02
2019-06-15T22:37:46.809Z,18.01
2019-06-15T22:40:16.588Z,17.97
2019-06-15T22:42:47.068Z,17.99
2019-06-15T22:45:17.251Z,17.86
2019-06-15T22:47:46.782Z,17.79
2019-06-15T22:50:16.119Z,17.82
2019-06-15T22:52:47.346Z,17.83
2019-06-15T22:55:16.672Z,17.78
2019-06-15T22:57:46.151Z,17.73
2019-06-15T23:00:17.183Z,17.76
2019-06-15T23:02:46.049Z,17.74
2019-06-15T23:05:17.152Z,17.66
2019-06-15T23:07:47.284Z,17.64
2019-06-15T23:10:16.705Z,17.58
2019-06-15T23:12:46.487Z,17.54
2019-06-15T23:15:17.378Z,17.41
2019-06-15T23:17:46.627Z,17.46
2019-06-15T23:20:17.125Z,17.42
2019-06-15T23:22:46.879Z,17.19
2019-06-15T23:25:16.766Z,17.24
2019-06-15T23:27:46.885Z,17.27
2019-06-15T23:30:16.174Z,17.28
2019-06-15T23:32:46.897Z,17.27
2019-06-15T23:35:16.768Z,17.16
2019-06-15T23:37:46.543Z,17.04
2019-06-15T23:40:30.507Z,17.06
2019-06-15T23:42:58.936Z,16.96
2019-06-15T23:45:27.404Z,16.99
2019-06-15T23:47:57.553Z,16.90
2019-06-15T23:50:26.586Z,16.91
2019-06-15T23:52:55.525Z,16.87
2019-06-15T23:55:26.650Z,16.71
2019-06-15T23:57:54.165Z,16.58
